EST,Max TemperatureF,Mean TemperatureF,Min TemperatureF,Max Dew PointF,MeanDew PointF,Min DewpointF,Max Humidity, Mean Humidity, Min Humidity, Max Sea Level PressureIn, Mean Sea Level PressureIn, Min Sea Level PressureIn, Max VisibilityMiles, Mean VisibilityMiles, Min VisibilityMiles, Max Wind SpeedMPH, Mean Wind SpeedMPH, Max Gust SpeedMPH,PrecipitationIn, CloudCover, Events, WindDirDegrees
2013-12-1,38,35,32,35,32,31,98,86,74,30.06,30.03,30.01,10,8,4,10,4,,0.00,8,,334
2013-12-2,39,32,25,32,28,23,96,82,55,30.01,29.93,29.88,10,9,7,6,1,,0.00,5,,103
2013-12-3,33,28,24,33,30,23,100,96,83,29.91,29.87,29.83,10,5,2,15,7,20,0.00,7,Rain-Snow,75
2013-12-4,57,45,33,54,40,33,100,99,88,29.86,29.75,29.53,7,2,0,20,6,32,0.00,8,Fog-Rain,79
2013-12-5,55,41,27,52,30,18,88,73,56,30.12,29.83,29.54,10,10,7,25,14,32,0.00,4,,250
2013-12-6,27,22,17,18,13,9,76,68,57,30.38,30.26,30.13,10,10,10,14,9,18,0.00,3,,280
2013-12-7,23,16,9,12,8,6,91,66,53,30.59,30.52,30.39,10,10,7,16,8,21,0.00,4,Snow,278
2013-12-8,24,16,9,24,13,7,97,84,62,30.57,30.36,29.98,10,8,1,14,4,18,0.00,6,Snow,65
2013-12-9,30,22,14,28,21,6,99,86,63,30.07,29.92,29.82,10,6,1,23,9,31,0.00,7,Snow,236
2013-12-10,21,12,3,18,9,2,94,81,53,30.13,30.01,29.87,10,7,2,18,9,28,0.00,6,Snow,227
2013-12-11,19,10,0,14,7,-3,93,76,56,30.41,30.27,30.14,10,10,4,16,8,25,0.00,3,Snow,258
2013-12-12,22,12,3,19,10,0,92,88,79,30.41,30.25,30.11,10,6,1,16,7,24,0.00,7,Snow,217
2013-12-13,25,20,15,21,17,12,89,80,61,30.30,30.19,30.09,10,10,7,16,8,22,0.00,8,Snow,3
2013-12-14,21,18,14,20,17,11,97,92,86,30.30,30.08,29.84,10,4,1,16,11,22,0.00,8,Snow,37
2013-12-15,22,18,13,20,14,7,96,83,68,29.98,29.85,29.78,10,8,2,21,8,30,0.00,7,Snow,259
2013-12-16,16,5,-6,13,4,-10,92,77,54,30.16,30.07,29.98,10,9,1,10,4,,0.00,3,Snow,154
2013-12-17,30,22,14,28,21,13,96,90,76,30.00,29.89,29.79,10,6,0,15,6,22,0.00,8,Snow,223
2013-12-18,29,26,23,25,20,12,96,78,61,30.08,29.96,29.81,10,9,5,15,8,20,0.00,5,Snow,221
2013-12-19,35,25,15,32,24,13,99,86,66,29.99,29.90,29.78,10,7,1,14,6,20,0.00,3,Snow,65
2013-12-20,33,31,29,33,31,29,100,99,97,29.90,29.82,29.75,10,6,2,15,11,18,0.00,8,Rain-Snow,41
2013-12-21,32,30,28,32,30,28,100,99,96,29.90,29.83,29.74,10,4,0,15,7,18,0.00,8,Fog-Snow,30
2013-12-22,32,28,23,32,29,24,100,98,94,29.99,29.76,29.62,10,5,1,18,12,25,0.00,8,Rain-Snow,26
2013-12-23,26,22,18,23,21,17,100,94,79,30.28,30.18,30.00,10,6,1,8,3,,0.00,7,Snow,318
2013-12-24,17,9,1,15,10,-1,95,88,77,30.49,30.41,30.28,10,9,2,9,4,,0.00,7,Snow,302
2013-12-25,24,20,15,24,20,15,96,92,86,30.31,30.17,30.03,10,5,2,15,9,21,0.00,8,Snow,182
2013-12-26,25,24,23,25,22,17,98,89,74,30.22,30.13,29.99,10,7,1,16,7,22,0.00,8,Snow,229
2013-12-27,36,30,24,32,27,23,99,93,83,30.27,30.16,29.97,10,6,2,16,4,23,0.00,6,Snow,202
2013-12-28,41,32,22,34,32,22,100,85,74,30.05,29.95,29.82,10,7,0,13,8,18,0.00,0,Fog,209
2013-12-29,38,28,18,34,24,8,94,80,66,30.03,29.81,29.71,10,10,3,17,9,25,0.00,5,,274
2013-12-30,17,10,2,12,5,-2,88,67,53,30.26,30.15,30.04,10,10,2,12,5,16,0.00,7,Snow,266
2013-12-31,17,14,11,14,8,4,92,76,61,30.32,30.16,30.04,10,8,1,17,9,26,0.00,7,Snow,267